createdAt,value
2019-01-25T00:01:28.485Z,22.67
2019-01-25T00:04:10.434Z,22.35
2019-01-25T00:06:52.547Z,22.87
2019-01-25T00:09:34.518Z,22.98
2019-01-25T00:12:16.806Z,22.98
2019-01-25T00:14:58.846Z,23.67
2019-01-25T00:17:40.758Z,21.90
2019-01-25T00:20:23.045Z,20.75
2019-01-25T00:23:04.977Z,21.95
2019-01-25T00:25:47.278Z,21.73
2019-01-25T00:28:29.262Z,21.82
2019-01-25T00:31:11.392Z,23.27
2019-01-25T00:33:53.417Z,22.05
2019-01-25T00:36:35.507Z,21.23
2019-01-25T00:39:17.882Z,20.15
2019-01-25T00:42:00.222Z,20.52
2019-01-25T00:44:42.490Z,19.50
2019-01-25T00:47:24.290Z,20.95
2019-01-25T00:50:06.098Z,20.10
2019-01-25T00:52:47.934Z,19.20
2019-01-25T00:55:29.854Z,19.55
2019-01-25T00:58:11.714Z,17.35
2019-01-25T01:00:53.661Z,18.30
2019-01-25T01:03:35.858Z,17.12
2019-01-25T01:06:17.886Z,17.70
2019-01-25T01:09:00.137Z,17.00
2019-01-25T01:11:42.062Z,18.65
2019-01-25T01:14:24.142Z,17.77
2019-01-25T01:17:06.222Z,18.80
2019-01-25T01:19:48.506Z,18.05
2019-01-25T01:22:30.254Z,17.90
2019-01-25T01:25:12.718Z,17.62
2019-01-25T01:27:55.046Z,17.17
2019-01-25T01:30:37.297Z,15.43
2019-01-25T01:33:18.934Z,18.48
2019-01-25T01:36:00.734Z,17.82
2019-01-25T01:38:42.498Z,17.75
2019-01-25T01:41:24.650Z,17.48
2019-01-25T01:44:06.886Z,17.02
2019-01-25T01:46:49.202Z,17.85
2019-01-25T01:49:31.722Z,16.70
2019-01-25T01:52:13.854Z,16.10
2019-01-25T01:54:55.764Z,15.90
2019-01-25T01:57:37.862Z,17.02
2019-01-25T02:00:19.934Z,16.65
2019-01-25T02:03:01.986Z,17.12
2019-01-25T02:05:44.405Z,17.07
2019-01-25T02:08:26.563Z,17.42
2019-01-25T02:11:08.278Z,17.10
2019-01-25T02:13:50.346Z,16.87
2019-01-25T02:16:32.130Z,16.77
2019-01-25T02:19:14.110Z,18.90
2019-01-25T02:21:56.678Z,19.20
2019-01-25T02:24:39.170Z,17.48
2019-01-25T02:27:21.446Z,16.02
2019-01-25T02:30:03.273Z,14.28
2019-01-25T02:32:45.466Z,15.25
2019-01-25T02:35:27.408Z,15.28
2019-01-25T02:38:07.918Z,15.50
2019-01-25T02:40:57.350Z,14.30
2019-01-25T02:46:40.414Z,14.60
2019-01-25T02:49:22.006Z,15.00
2019-01-25T02:52:03.853Z,15.30
2019-01-25T02:54:46.045Z,15.78
2019-01-25T02:57:28.384Z,15.18
2019-01-25T03:00:10.702Z,13.70
2019-01-25T03:02:52.651Z,13.85
2019-01-25T03:05:34.902Z,13.40
2019-01-25T03:08:16.754Z,13.88
2019-01-25T03:10:58.863Z,13.62
2019-01-25T03:13:40.563Z,14.33
2019-01-25T03:16:22.393Z,13.90
2019-01-25T03:19:04.475Z,13.30
2019-01-25T03:21:46.455Z,13.50
2019-01-25T03:24:28.591Z,12.58
2019-01-25T03:27:11.197Z,15.20
2019-01-25T03:29:53.214Z,15.90
2019-01-25T03:32:35.331Z,14.23
2019-01-25T03:35:17.691Z,13.85
2019-01-25T03:37:59.690Z,13.40
2019-01-25T03:40:41.296Z,12.93
2019-01-25T03:43:23.006Z,13.18
2019-01-25T03:46:04.616Z,13.22
2019-01-25T03:48:46.318Z,12.75
2019-01-25T03:51:28.191Z,13.95
2019-01-25T03:54:09.862Z,13.25
2019-01-25T03:56:52.118Z,13.48
2019-01-25T03:59:34.315Z,13.20
2019-01-25T04:02:16.426Z,14.20
2019-01-25T04:04:58.238Z,13.72
2019-01-25T04:07:40.050Z,13.65
2019-01-25T04:10:22.183Z,12.33
2019-01-25T04:13:04.230Z,13.38
2019-01-25T04:15:46.784Z,12.47
2019-01-25T04:18:28.774Z,11.28
2019-01-25T04:21:10.454Z,12.78
2019-01-25T04:23:52.062Z,13.45
2019-01-25T04:26:34.394Z,12.68
2019-01-25T04:29:16.158Z,15.35
2019-01-25T04:31:57.954Z,24.57
2019-01-25T04:34:40.258Z,18.98
2019-01-25T04:37:22.082Z,15.23
2019-01-25T04:40:03.759Z,19.25
2019-01-25T04:42:45.491Z,16.73
2019-01-25T04:45:27.569Z,19.15
2019-01-25T04:48:10.898Z,19.98
2019-01-25T04:50:52.854Z,22.93
2019-01-25T04:53:35.398Z,14.55
2019-01-25T04:56:15.911Z,12.88
2019-01-25T04:59:05.442Z,13.95
2019-01-25T05:01:49.099Z,14.45
2019-01-25T05:04:32.462Z,13.22
2019-01-25T05:07:14.746Z,13.50
2019-01-25T05:09:56.455Z,11.85
2019-01-25T05:12:38.254Z,12.53
2019-01-25T05:15:20.310Z,13.15
2019-01-25T05:18:02.669Z,11.48
2019-01-25T05:20:44.914Z,15.23
2019-01-25T05:23:26.642Z,12.23
2019-01-25T05:26:09.074Z,14.03
2019-01-25T05:28:51.144Z,13.25
2019-01-25T05:31:32.928Z,12.90
2019-01-25T05:34:16.908Z,11.68
2019-01-25T05:36:58.584Z,12.05
2019-01-25T05:39:40.306Z,12.18
2019-01-25T05:42:22.302Z,12.30
2019-01-25T05:45:05.602Z,12.70
2019-01-25T05:47:47.974Z,13.22
2019-01-25T05:50:30.486Z,12.65
2019-01-25T05:53:11.306Z,12.37
2019-01-25T05:56:00.653Z,13.30
2019-01-25T05:58:44.201Z,11.63
2019-01-25T06:01:26.487Z,12.70
2019-01-25T06:04:08.859Z,13.10
2019-01-25T06:06:50.590Z,13.90
2019-01-25T06:09:33.054Z,12.07
2019-01-25T06:12:15.011Z,13.95
2019-01-25T06:14:56.851Z,15.08
2019-01-25T06:17:38.742Z,15.83
2019-01-25T06:20:20.890Z,14.98
2019-01-25T06:23:02.579Z,16.48
2019-01-25T06:25:46.025Z,17.02
2019-01-25T06:28:28.430Z,14.20
2019-01-25T06:31:10.363Z,15.53
2019-01-25T06:33:52.546Z,14.95
2019-01-25T06:36:34.790Z,15.58
2019-01-25T06:39:16.862Z,15.98
2019-01-25T06:41:58.854Z,15.48
2019-01-25T06:44:41.094Z,15.53
2019-01-25T06:47:22.883Z,17.82
2019-01-25T06:50:04.962Z,17.07
2019-01-25T06:52:46.914Z,14.95
2019-01-25T06:55:28.622Z,14.83
2019-01-25T06:58:29.649Z,19.62
2019-01-25T07:01:30.609Z,16.75
2019-01-25T07:04:14.557Z,17.12
2019-01-25T07:06:56.268Z,17.85
2019-01-25T07:09:38.046Z,18.98
2019-01-25T07:12:20.386Z,18.85
2019-01-25T07:15:02.326Z,24.37
2019-01-25T07:17:44.137Z,16.82
2019-01-25T07:20:26.466Z,16.87
2019-01-25T07:23:08.265Z,18.35
2019-01-25T07:25:50.330Z,19.57
2019-01-25T07:28:32.471Z,19.42
2019-01-25T07:31:14.197Z,23.77
2019-01-25T07:33:54.686Z,23.57
2019-01-25T07:36:44.044Z,28.17
2019-01-25T07:39:28.140Z,27.67
2019-01-25T07:42:17.673Z,25.50
2019-01-25T07:45:01.596Z,23.00
2019-01-25T07:47:44.165Z,22.13
2019-01-25T07:50:26.324Z,21.73
2019-01-25T07:53:08.475Z,21.25
2019-01-25T07:55:50.571Z,19.87
2019-01-25T07:58:32.847Z,21.45
2019-01-25T08:01:14.559Z,20.82
2019-01-25T08:03:56.868Z,23.40
2019-01-25T08:06:38.636Z,25.35
2019-01-25T08:09:20.957Z,22.07
2019-01-25T08:12:07.547Z,23.27
2019-01-25T08:14:47.338Z,24.72
2019-01-25T08:17:29.277Z,25.75
2019-01-25T08:20:11.431Z,26.55
2019-01-25T08:22:53.693Z,34.70
2019-01-25T08:25:35.716Z,45.78
2019-01-25T08:28:17.915Z,27.13
2019-01-25T08:30:59.518Z,27.73
2019-01-25T08:33:41.773Z,26.30
2019-01-25T08:36:23.907Z,27.00
2019-01-25T08:39:06.049Z,29.40
2019-01-25T08:41:47.771Z,27.37
2019-01-25T08:44:30.132Z,26.82
2019-01-25T08:47:12.263Z,27.42
2019-01-25T08:49:57.921Z,27.52
2019-01-25T08:52:38.024Z,29.75
2019-01-25T08:55:21.412Z,39.78
2019-01-25T08:58:03.434Z,49.05
2019-01-25T09:00:45.765Z,33.90
2019-01-25T09:03:27.467Z,42.08
2019-01-25T09:06:09.762Z,25.57
2019-01-25T09:08:51.647Z,24.90
2019-01-25T09:11:33.579Z,22.63
2019-01-25T09:14:15.903Z,24.05
2019-01-25T09:16:58.901Z,23.77
2019-01-25T09:19:40.694Z,24.95
2019-01-25T09:22:22.844Z,25.20
2019-01-25T09:25:04.890Z,22.50
2019-01-25T09:27:46.766Z,24.27
2019-01-25T09:30:29.241Z,25.43
2019-01-25T09:33:11.082Z,22.80
2019-01-25T09:35:53.042Z,21.83
2019-01-25T09:38:34.247Z,20.77
2019-01-25T09:41:23.710Z,19.77
2019-01-25T09:44:07.631Z,19.87
2019-01-25T09:46:49.334Z,34.67
2019-01-25T09:49:31.278Z,37.23
2019-01-25T09:52:13.150Z,41.00
2019-01-25T09:54:55.034Z,41.40
2019-01-25T09:57:36.819Z,31.07
2019-01-25T10:00:18.946Z,27.10
2019-01-25T10:03:01.146Z,28.17
2019-01-25T10:05:43.333Z,28.60
2019-01-25T10:08:25.506Z,26.90
2019-01-25T10:11:07.488Z,28.10
2019-01-25T10:13:49.715Z,29.03
2019-01-25T10:16:31.346Z,28.40
2019-01-25T10:19:13.250Z,28.53
2019-01-25T10:21:55.778Z,29.57
2019-01-25T10:24:37.446Z,29.10
2019-01-25T10:27:19.221Z,30.07
2019-01-25T10:30:01.062Z,29.00
2019-01-25T10:32:43.138Z,28.53
2019-01-25T10:35:26.806Z,27.03
2019-01-25T10:38:09.194Z,27.57
2019-01-25T10:40:50.770Z,28.13
2019-01-25T10:43:33.086Z,32.67
2019-01-25T10:46:15.095Z,33.13
2019-01-25T10:48:57.287Z,32.27
2019-01-25T10:51:39.614Z,36.23
2019-01-25T10:54:21.645Z,28.73
2019-01-25T10:57:03.957Z,29.20
2019-01-25T10:59:45.852Z,29.10
2019-01-25T11:02:27.870Z,28.40
2019-01-25T11:05:09.646Z,27.67
2019-01-25T11:07:51.778Z,27.47
2019-01-25T11:10:33.691Z,28.23
2019-01-25T11:13:15.824Z,28.67
2019-01-25T11:15:57.858Z,28.50
2019-01-25T11:18:39.773Z,28.40
2019-01-25T11:21:22.399Z,28.13
2019-01-25T11:24:07.871Z,28.27
2019-01-25T11:26:47.740Z,28.10
2019-01-25T11:29:29.986Z,29.23
2019-01-25T11:32:12.682Z,28.93
2019-01-25T11:34:54.396Z,29.40
2019-01-25T11:37:36.279Z,28.47
2019-01-25T11:40:18.970Z,27.93
2019-01-25T11:43:08.124Z,26.90
2019-01-25T11:45:45.001Z,28.03
2019-01-25T11:48:27.337Z,27.43
2019-01-25T11:51:08.986Z,27.17
2019-01-25T11:53:51.267Z,28.43
2019-01-25T11:56:33.856Z,27.60
2019-01-25T11:59:15.905Z,28.43
2019-01-25T12:01:57.925Z,27.77
2019-01-25T12:04:39.994Z,27.67
2019-01-25T12:07:22.555Z,26.97
2019-01-25T12:10:04.715Z,27.30
2019-01-25T12:12:46.522Z,26.83
2019-01-25T12:15:28.801Z,26.63
2019-01-25T12:18:10.442Z,25.27
2019-01-25T12:20:52.310Z,25.07
2019-01-25T12:23:34.194Z,23.90
2019-01-25T12:26:15.898Z,23.47
2019-01-25T12:28:57.960Z,23.03
2019-01-25T12:31:39.743Z,25.20
2019-01-25T12:34:21.775Z,26.47
2019-01-25T12:37:04.853Z,23.40
2019-01-25T12:39:47.081Z,21.90
2019-01-25T12:42:29.061Z,25.03
2019-01-25T12:45:10.732Z,22.77
2019-01-25T12:47:52.613Z,22.27
2019-01-25T12:50:34.684Z,28.00
2019-01-25T12:53:16.594Z,28.13
2019-01-25T12:55:58.766Z,30.00
2019-01-25T12:58:40.738Z,22.80
2019-01-25T13:01:23.079Z,23.37
2019-01-25T13:04:05.527Z,22.43
2019-01-25T13:06:47.566Z,22.47
2019-01-25T13:09:29.875Z,23.10
2019-01-25T13:12:11.534Z,22.53
2019-01-25T13:14:53.670Z,23.90
2019-01-25T13:17:35.512Z,24.90
2019-01-25T13:20:17.902Z,24.00
2019-01-25T13:23:00.047Z,27.90
2019-01-25T13:25:47.124Z,24.77
2019-01-25T13:28:26.208Z,22.97
2019-01-25T13:31:08.144Z,22.47
2019-01-25T13:33:50.118Z,22.57
2019-01-25T13:36:32.142Z,22.50
2019-01-25T13:39:14.142Z,24.47
2019-01-25T13:41:56.118Z,27.20
2019-01-25T13:44:37.780Z,45.77
2019-01-25T13:47:19.751Z,47.50
2019-01-25T13:50:01.926Z,41.00
2019-01-25T13:52:43.665Z,47.13
2019-01-25T13:55:25.614Z,39.10
2019-01-25T13:58:06.363Z,32.93
2019-01-25T14:00:55.761Z,24.50
2019-01-25T14:03:39.616Z,39.17
2019-01-25T14:06:21.486Z,25.93
2019-01-25T14:09:04.623Z,31.57
2019-01-25T14:11:46.938Z,28.73
2019-01-25T14:14:28.963Z,26.73
2019-01-25T14:17:10.754Z,33.07
2019-01-25T14:19:52.795Z,53.00
2019-01-25T14:22:35.192Z,27.57
2019-01-25T14:25:17.314Z,19.80
2019-01-25T14:27:59.350Z,19.10
2019-01-25T14:30:41.058Z,16.77
2019-01-25T14:33:23.294Z,12.63
2019-01-25T14:36:05.163Z,14.43
2019-01-25T14:38:47.235Z,11.57
2019-01-25T14:41:29.350Z,19.77
2019-01-25T14:44:11.670Z,11.60
2019-01-25T14:46:53.386Z,13.30
2019-01-25T14:49:35.290Z,16.40
2019-01-25T14:52:17.122Z,13.20
2019-01-25T14:54:59.095Z,9.53
2019-01-25T14:57:41.358Z,10.63
2019-01-25T15:00:23.417Z,10.07
2019-01-25T15:03:03.889Z,10.07
2019-01-25T15:05:53.957Z,10.13
2019-01-25T15:08:38.104Z,9.77
2019-01-25T15:11:19.980Z,10.70
2019-01-25T15:14:02.489Z,10.60
2019-01-25T15:16:44.343Z,10.17
2019-01-25T15:19:26.262Z,9.83
2019-01-25T15:22:08.270Z,10.47
2019-01-25T15:24:50.466Z,10.00
2019-01-25T15:27:30.879Z,10.30
2019-01-25T15:30:21.289Z,11.03
2019-01-25T15:33:04.342Z,10.83
2019-01-25T15:35:46.246Z,10.23
2019-01-25T15:38:28.279Z,10.10
2019-01-25T15:41:10.320Z,10.30
2019-01-25T15:43:52.190Z,11.13
2019-01-25T15:46:34.704Z,10.50
2019-01-25T15:49:17.090Z,12.10
2019-01-25T15:51:58.983Z,15.37
2019-01-25T15:54:40.786Z,33.50
2019-01-25T15:57:23.258Z,18.03
2019-01-25T16:00:05.186Z,29.77
2019-01-25T16:02:47.725Z,16.97
2019-01-25T16:05:29.713Z,22.20
2019-01-25T16:08:11.561Z,29.13
2019-01-25T16:10:53.389Z,21.13
2019-01-25T16:13:35.842Z,12.77
2019-01-25T16:16:17.531Z,14.47
2019-01-25T16:18:59.518Z,13.60
2019-01-25T16:21:39.978Z,13.93
2019-01-25T16:24:29.351Z,12.60
2019-01-25T16:27:11.439Z,14.10
2019-01-25T16:29:53.591Z,13.90
2019-01-25T16:32:35.834Z,21.30
2019-01-25T16:35:17.737Z,20.37
2019-01-25T16:38:00.224Z,45.53
2019-01-25T16:40:42.810Z,71.00
2019-01-25T16:43:24.825Z,39.27
2019-01-25T16:46:06.970Z,22.20
2019-01-25T16:48:49.058Z,18.57
2019-01-25T16:51:31.589Z,25.70
2019-01-25T16:54:13.779Z,21.37
2019-01-25T16:56:55.778Z,22.53
2019-01-25T16:59:37.707Z,20.10
2019-01-25T17:02:19.781Z,17.50
2019-01-25T17:05:01.735Z,36.27
2019-01-25T17:07:43.766Z,26.87
2019-01-25T17:10:25.840Z,29.40
2019-01-25T17:13:07.930Z,55.07
2019-01-25T17:15:50.174Z,33.50
2019-01-25T17:18:30.650Z,32.57
2019-01-25T17:21:20.083Z,25.20
2019-01-25T17:24:03.730Z,22.57
2019-01-25T17:26:45.650Z,19.70
2019-01-25T17:29:27.682Z,22.63
2019-01-25T17:32:09.702Z,23.77
2019-01-25T17:34:51.506Z,27.73
2019-01-25T17:37:33.598Z,28.80
2019-01-25T17:40:15.789Z,28.63
2019-01-25T17:42:57.954Z,31.93
2019-01-25T17:45:40.467Z,33.60
2019-01-25T17:48:22.313Z,33.20
2019-01-25T17:51:04.250Z,30.13
2019-01-25T17:53:46.034Z,29.90
2019-01-25T17:56:16.361Z,26.70
2019-01-25T17:59:07.509Z,24.07
2019-01-25T18:01:51.406Z,22.30
2019-01-25T18:04:33.528Z,22.60
2019-01-25T18:07:15.499Z,28.47
2019-01-25T18:09:57.374Z,25.80
2019-01-25T18:12:39.668Z,24.70
2019-01-25T18:15:21.807Z,23.40
2019-01-25T18:18:05.543Z,29.37
2019-01-25T18:20:47.251Z,28.00
2019-01-25T18:23:29.090Z,24.85
2019-01-25T18:26:11.071Z,28.05
2019-01-25T18:28:52.870Z,28.40
2019-01-25T18:31:34.627Z,28.05
2019-01-25T18:34:17.134Z,27.30
2019-01-25T18:36:59.351Z,30.92
2019-01-25T18:39:41.709Z,30.37
2019-01-25T18:42:23.898Z,30.30
2019-01-25T18:45:05.798Z,30.25
2019-01-25T18:47:47.666Z,29.77
2019-01-25T18:50:29.436Z,28.55
2019-01-25T18:53:11.658Z,29.65
2019-01-25T18:55:53.858Z,27.65
2019-01-25T18:58:35.646Z,24.55
2019-01-25T19:01:17.342Z,24.82
2019-01-25T19:03:58.965Z,26.60
2019-01-25T19:06:41.138Z,26.95
2019-01-25T19:09:23.238Z,23.02
2019-01-25T19:12:04.935Z,23.30
2019-01-25T19:14:46.849Z,27.82
2019-01-25T19:17:28.866Z,42.13
2019-01-25T19:20:10.118Z,45.12
2019-01-25T19:22:59.484Z,38.80
2019-01-25T19:25:41.369Z,36.55
2019-01-25T19:28:23.194Z,30.25
2019-01-25T19:31:04.934Z,24.30
2019-01-25T19:33:46.566Z,24.95
2019-01-25T19:36:28.635Z,26.10
2019-01-25T19:39:10.566Z,25.97
2019-01-25T19:41:52.617Z,24.30
2019-01-25T19:44:34.439Z,22.75
2019-01-25T19:47:16.570Z,20.30
2019-01-25T19:49:58.513Z,21.57
2019-01-25T19:52:40.154Z,20.95
2019-01-25T19:55:22.052Z,22.62
2019-01-25T19:58:04.166Z,23.83
2019-01-25T20:00:45.986Z,23.73
2019-01-25T20:03:28.118Z,24.65
2019-01-25T20:06:09.824Z,24.65
2019-01-25T20:08:51.590Z,25.70
2019-01-25T20:11:33.418Z,27.07
2019-01-25T20:14:15.079Z,28.42
2019-01-25T20:16:57.065Z,37.03
2019-01-25T20:19:38.718Z,25.48
2019-01-25T20:22:21.122Z,26.55
2019-01-25T20:25:03.406Z,24.07
2019-01-25T20:27:45.362Z,24.90
2019-01-25T20:30:27.213Z,21.80
2019-01-25T20:33:09.313Z,20.08
2019-01-25T20:35:51.473Z,21.00
2019-01-25T20:38:31.958Z,19.77
2019-01-25T20:41:21.434Z,18.32
2019-01-25T20:44:04.639Z,17.40
2019-01-25T20:46:46.556Z,17.60
2019-01-25T20:49:28.390Z,18.30
2019-01-25T20:52:10.298Z,18.65
2019-01-25T20:54:52.700Z,17.50
2019-01-25T20:57:34.839Z,17.35
2019-01-25T21:00:16.861Z,18.90
2019-01-25T21:02:58.945Z,19.37
2019-01-25T21:05:40.892Z,18.55
2019-01-25T21:08:22.822Z,34.80
2019-01-25T21:11:04.509Z,28.00
2019-01-25T21:13:46.100Z,24.15
2019-01-25T21:16:28.181Z,21.95
2019-01-25T21:19:10.251Z,21.70
2019-01-25T21:21:52.266Z,22.05
2019-01-25T21:24:33.950Z,22.65
2019-01-25T21:27:15.578Z,21.87
2019-01-25T21:32:57.087Z,34.73
2019-01-25T21:35:39.139Z,26.55
2019-01-25T21:38:21.094Z,23.25
2019-01-25T21:41:03.030Z,23.60
2019-01-25T21:43:45.257Z,21.62
2019-01-25T21:46:27.894Z,22.37
2019-01-25T21:49:09.870Z,22.25
2019-01-25T21:51:52.046Z,21.17
2019-01-25T21:54:33.947Z,24.18
2019-01-25T21:57:16.135Z,22.77
2019-01-25T21:59:58.371Z,23.70
2019-01-25T22:02:40.127Z,23.27
2019-01-25T22:05:22.273Z,23.25
2019-01-25T22:08:03.878Z,22.20
2019-01-25T22:10:45.809Z,23.07
2019-01-25T22:13:27.557Z,22.07
2019-01-25T22:16:09.725Z,21.20
2019-01-25T22:18:51.467Z,19.52
2019-01-25T22:21:33.273Z,24.98
2019-01-25T22:24:15.222Z,38.98
2019-01-25T22:26:57.207Z,48.02
2019-01-25T22:29:38.874Z,22.87
2019-01-25T22:32:21.106Z,18.20
2019-01-25T22:35:02.782Z,18.05
2019-01-25T22:37:43.421Z,17.87
2019-01-25T22:40:32.766Z,17.57
2019-01-25T22:43:16.482Z,17.15
2019-01-25T22:45:58.995Z,19.65
2019-01-25T22:48:41.520Z,20.50
2019-01-25T22:51:23.586Z,19.20
2019-01-25T22:54:05.314Z,19.07
2019-01-25T22:56:47.254Z,20.60
2019-01-25T22:59:29.270Z,19.60
2019-01-25T23:02:10.989Z,19.55
2019-01-25T23:04:52.806Z,19.05
2019-01-25T23:07:34.963Z,21.40
2019-01-25T23:10:17.158Z,23.57
2019-01-25T23:12:58.846Z,23.20
2019-01-25T23:15:40.946Z,25.82
2019-01-25T23:18:23.226Z,23.02
2019-01-25T23:21:05.270Z,23.85
2019-01-25T23:23:47.450Z,22.17
2019-01-25T23:26:29.743Z,22.90
2019-01-25T23:29:11.678Z,21.97
2019-01-25T23:31:53.762Z,19.75
2019-01-25T23:34:36.033Z,20.90
2019-01-25T23:37:17.777Z,19.75
2019-01-25T23:39:59.810Z,20.82
2019-01-25T23:42:41.485Z,18.67
2019-01-25T23:45:23.806Z,18.42
2019-01-25T23:48:05.423Z,17.23
2019-01-25T23:50:47.647Z,19.30
2019-01-25T23:53:29.726Z,19.60
2019-01-25T23:56:11.334Z,20.08
2019-01-25T23:58:53.625Z,18.70
